createdAt,value
2018-04-25T00:00:00.193Z,1001.96
2018-04-25T00:04:56.395Z,1001.93
2018-04-25T00:09:53.711Z,1001.74
2018-04-25T00:14:49.308Z,1001.73
2018-04-25T00:19:46.456Z,1001.65
2018-04-25T00:24:42.012Z,1001.46
2018-04-25T00:29:37.747Z,1001.36
2018-04-25T00:34:34.028Z,1001.30
2018-04-25T00:39:30.187Z,1001.15
2018-04-25T00:44:26.254Z,1001.23
2018-04-25T00:49:22.120Z,1001.12
2018-04-25T00:54:18.122Z,1001.03
2018-04-25T00:59:18.063Z,1001.02
2018-04-25T01:04:13.039Z,1000.79
2018-04-25T01:09:10.290Z,1000.67
2018-04-25T01:14:07.553Z,1000.60
2018-04-25T01:19:04.062Z,1000.59
2018-04-25T01:24:03.681Z,1000.59
2018-04-25T01:28:58.625Z,1000.52
2018-04-25T01:33:58.560Z,1000.62
2018-04-25T01:38:57.323Z,1000.43
2018-04-25T01:43:53.354Z,1000.47
2018-04-25T01:48:49.024Z,1000.31
2018-04-25T01:53:44.839Z,1000.27
2018-04-25T01:58:40.420Z,1000.35
2018-04-25T02:03:36.572Z,1000.17
2018-04-25T02:08:32.564Z,1000.18
2018-04-25T02:13:28.385Z,1000.14
2018-04-25T02:18:24.397Z,1000.11
2018-04-25T02:23:25.057Z,1000.07
2018-04-25T02:28:20.138Z,1000.00
2018-04-25T02:33:16.121Z,1000.05
2018-04-25T02:38:12.122Z,1000.17
2018-04-25T02:43:12.020Z,1000.03
2018-04-25T02:48:08.107Z,1000.00
2018-04-25T02:53:07.409Z,999.82
2018-04-25T02:58:02.465Z,999.86
2018-04-25T03:02:58.360Z,999.81
2018-04-25T03:07:54.230Z,999.81
2018-04-25T03:12:55.047Z,999.74
2018-04-25T03:17:50.731Z,999.75
2018-04-25T03:22:46.233Z,999.72
2018-04-25T03:27:42.255Z,999.59
2018-04-25T03:32:38.139Z,999.52
2018-04-25T03:37:37.854Z,999.72
2018-04-25T03:42:37.040Z,999.69
2018-04-25T03:47:31.578Z,999.61
2018-04-25T03:52:31.295Z,999.60
2018-04-25T03:57:30.423Z,999.61
2018-04-25T04:02:25.280Z,999.49
2018-04-25T04:07:21.393Z,999.55
2018-04-25T04:12:17.296Z,999.54
2018-04-25T04:17:13.554Z,999.55
2018-04-25T04:22:14.131Z,999.47
2018-04-25T04:27:09.092Z,999.40
2018-04-25T04:32:04.738Z,999.56
2018-04-25T04:37:01.134Z,999.55
2018-04-25T04:41:57.329Z,999.52
2018-04-25T04:46:57.854Z,999.52
2018-04-25T04:51:52.533Z,999.51
2018-04-25T04:56:49.099Z,999.42
2018-04-25T05:01:48.802Z,999.40
2018-04-25T05:06:48.742Z,999.50
2018-04-25T05:11:43.659Z,999.43
2018-04-25T05:16:39.852Z,999.48
2018-04-25T05:21:36.796Z,999.59
2018-04-25T05:26:36.690Z,999.68
2018-04-25T05:31:32.257Z,999.69
2018-04-25T05:36:28.014Z,999.62
2018-04-25T05:41:24.960Z,999.86
2018-04-25T05:46:21.879Z,999.95
2018-04-25T05:51:17.046Z,1000.23
2018-04-25T05:56:13.684Z,1000.26
2018-04-25T06:01:09.090Z,1000.32
2018-04-25T06:06:05.796Z,1000.34
2018-04-25T06:11:02.299Z,1000.38
2018-04-25T06:15:58.278Z,1000.36
2018-04-25T06:20:59.300Z,1000.51
2018-04-25T06:25:53.894Z,1000.52
2018-04-25T06:30:50.704Z,1000.52
2018-04-25T06:35:50.633Z,1000.54
2018-04-25T06:40:46.334Z,1000.57
2018-04-25T06:45:43.325Z,1000.67
2018-04-25T06:50:39.320Z,1000.64
2018-04-25T06:55:35.357Z,1000.73
2018-04-25T07:00:35.727Z,1000.75
2018-04-25T07:05:31.112Z,1000.93
2018-04-25T07:10:27.696Z,1000.69
2018-04-25T07:15:23.673Z,1000.75
2018-04-25T07:20:24.784Z,1000.76
2018-04-25T07:25:20.312Z,1000.94
2018-04-25T07:30:17.183Z,1001.01
2018-04-25T07:35:12.336Z,1000.97
2018-04-25T07:40:08.310Z,1000.96
2018-04-25T07:45:04.769Z,1001.06
2018-04-25T07:49:59.989Z,1001.32
2018-04-25T07:55:00.455Z,1001.37
2018-04-25T07:59:58.871Z,1001.49
2018-04-25T08:04:59.116Z,1001.64
2018-04-25T08:09:58.632Z,1001.69
2018-04-25T08:14:55.929Z,1001.85
2018-04-25T08:19:52.336Z,1001.70
2018-04-25T08:24:48.395Z,1001.98
2018-04-25T08:29:45.548Z,1002.20
2018-04-25T08:34:42.729Z,1001.93
2018-04-25T08:39:41.926Z,1002.14
2018-04-25T08:44:36.649Z,1002.16
2018-04-25T08:49:36.144Z,1002.33
2018-04-25T08:54:34.460Z,1002.49
2018-04-25T08:59:30.948Z,1002.53
2018-04-25T09:04:30.803Z,1002.50
2018-04-25T09:09:26.770Z,1002.74
2018-04-25T09:14:26.599Z,1002.73
2018-04-25T09:19:22.003Z,1002.90
2018-04-25T09:24:18.075Z,1002.85
2018-04-25T09:29:15.294Z,1002.95
2018-04-25T09:34:15.023Z,1003.05
2018-04-25T09:39:15.283Z,1003.01
2018-04-25T09:44:15.122Z,1003.10
2018-04-25T09:49:10.584Z,1003.38
2018-04-25T09:54:06.886Z,1003.34
2018-04-25T09:59:01.906Z,1003.43
2018-04-25T10:03:57.277Z,1003.44
2018-04-25T10:08:52.188Z,1003.61
2018-04-25T10:13:51.906Z,1003.68
2018-04-25T10:18:46.411Z,1003.83
2018-04-25T10:23:46.181Z,1003.98
2018-04-25T10:28:45.227Z,1004.00
2018-04-25T10:33:42.127Z,1004.02
2018-04-25T10:38:37.861Z,1004.10
2018-04-25T10:43:33.566Z,1004.03
2018-04-25T10:48:29.477Z,1004.03
2018-04-25T10:53:25.681Z,1004.08
2018-04-25T10:58:22.202Z,1004.14
2018-04-25T11:03:18.505Z,1004.14
2018-04-25T11:08:15.784Z,1004.16
2018-04-25T11:13:12.267Z,1004.12
2018-04-25T11:18:08.193Z,1004.14
2018-04-25T11:23:07.338Z,1003.99
2018-04-25T11:28:01.634Z,1004.19
2018-04-25T11:32:57.473Z,1004.26
2018-04-25T11:37:53.609Z,1004.37
2018-04-25T11:42:48.830Z,1004.63
2018-04-25T11:47:44.433Z,1004.53
2018-04-25T11:52:45.778Z,1004.58
2018-04-25T11:57:40.922Z,1004.60
2018-04-25T12:02:37.023Z,1004.59
2018-04-25T12:07:34.105Z,1004.53
2018-04-25T12:12:33.272Z,1004.68
2018-04-25T12:17:32.104Z,1004.71
2018-04-25T12:22:27.856Z,1004.78
2018-04-25T12:27:23.290Z,1004.90
2018-04-25T12:32:19.651Z,1004.78
2018-04-25T12:37:15.897Z,1004.79
2018-04-25T12:42:11.480Z,1004.93
2018-04-25T12:47:11.461Z,1004.90
2018-04-25T12:52:06.466Z,1004.98
2018-04-25T12:57:02.042Z,1004.96
2018-04-25T13:01:57.780Z,1004.86
2018-04-25T13:06:57.662Z,1004.96
2018-04-25T13:11:53.194Z,1004.85
2018-04-25T13:16:50.341Z,1004.90
2018-04-25T13:21:50.198Z,1004.82
2018-04-25T13:26:50.467Z,1004.85
2018-04-25T13:31:49.004Z,1005.03
2018-04-25T13:36:44.192Z,1004.95
2018-04-25T13:46:40.319Z,1005.12
2018-04-25T13:51:36.304Z,1004.94
2018-04-25T13:56:37.755Z,1005.09
2018-04-25T14:01:36.579Z,1005.11
2018-04-25T14:06:35.972Z,1005.01
2018-04-25T14:11:30.837Z,1005.06
2018-04-25T14:16:26.478Z,1005.02
2018-04-25T14:21:21.944Z,1005.13
2018-04-25T14:26:18.012Z,1005.11
2018-04-25T14:31:13.920Z,1004.98
2018-04-25T14:36:10.264Z,1004.99
2018-04-25T14:41:09.911Z,1005.04
2018-04-25T14:46:09.589Z,1004.91
2018-04-25T14:51:04.166Z,1004.88
2018-04-25T14:56:04.700Z,1005.03
2018-04-25T15:00:59.607Z,1004.96
2018-04-25T15:05:55.759Z,1004.99
2018-04-25T15:10:56.172Z,1004.90
2018-04-25T15:15:51.634Z,1004.87
2018-04-25T15:20:50.938Z,1004.84
2018-04-25T15:25:46.025Z,1004.67
2018-04-25T15:30:45.920Z,1004.74
2018-04-25T15:35:40.979Z,1004.85
2018-04-25T15:40:36.178Z,1004.74
2018-04-25T15:45:32.221Z,1004.69
2018-04-25T15:50:28.094Z,1004.71
2018-04-25T15:55:24.538Z,1004.65
2018-04-25T16:00:20.886Z,1004.74
2018-04-25T16:05:16.761Z,1004.71
2018-04-25T16:10:12.680Z,1004.66
2018-04-25T16:15:08.566Z,1004.64
2018-04-25T16:20:04.534Z,1004.74
2018-04-25T16:25:00.783Z,1004.66
2018-04-25T16:29:56.308Z,1004.42
2018-04-25T16:34:55.931Z,1004.45
2018-04-25T16:39:55.644Z,1004.46
2018-04-25T16:44:51.318Z,1004.46
2018-04-25T16:49:50.828Z,1004.41
2018-04-25T16:54:45.609Z,1004.36
2018-04-25T16:59:45.261Z,1004.39
2018-04-25T17:04:44.249Z,1004.43
2018-04-25T17:09:38.975Z,1004.45
2018-04-25T17:14:34.818Z,1004.38
2018-04-25T17:19:31.228Z,1004.35
2018-04-25T17:24:27.009Z,1004.33
2018-04-25T17:29:22.541Z,1004.34
2018-04-25T17:34:23.321Z,1004.41
2018-04-25T17:39:22.153Z,1004.43
2018-04-25T17:44:20.873Z,1004.50
2018-04-25T17:49:19.388Z,1004.42
2018-04-25T17:54:14.501Z,1004.49
2018-04-25T17:59:11.747Z,1004.56
2018-04-25T18:04:07.268Z,1004.59
2018-04-25T18:09:02.831Z,1004.57
2018-04-25T18:13:58.332Z,1004.62
2018-04-25T18:18:53.896Z,1004.59
2018-04-25T18:23:49.545Z,1004.77
2018-04-25T18:28:45.169Z,1004.78
2018-04-25T18:33:41.238Z,1004.75
2018-04-25T18:38:37.124Z,1004.72
2018-04-25T18:43:32.734Z,1004.81
2018-04-25T18:48:32.712Z,1004.85
2018-04-25T18:53:28.675Z,1004.88
2018-04-25T18:58:25.213Z,1004.94
2018-04-25T19:03:20.623Z,1004.87
2018-04-25T19:08:16.372Z,1004.97
2018-04-25T19:13:12.089Z,1005.00
2018-04-25T19:18:07.968Z,1005.05
2018-04-25T19:23:03.839Z,1005.25
2018-04-25T19:27:59.585Z,1005.15
2018-04-25T19:32:55.500Z,1005.18
2018-04-25T19:37:51.187Z,1005.26
2018-04-25T19:42:47.046Z,1005.33
2018-04-25T19:47:46.862Z,1005.40
2018-04-25T19:52:42.920Z,1005.25
2018-04-25T19:57:38.566Z,1005.25
2018-04-25T20:02:38.387Z,1005.38
2018-04-25T20:07:34.178Z,1005.40
2018-04-25T20:12:30.392Z,1005.41
2018-04-25T20:17:26.084Z,1005.39
2018-04-25T20:22:21.930Z,1005.37
2018-04-25T20:27:17.783Z,1005.38
2018-04-25T20:32:13.749Z,1005.50
2018-04-25T20:37:09.433Z,1005.57
2018-04-25T20:42:05.064Z,1005.76
2018-04-25T20:47:05.369Z,1005.62
2018-04-25T20:52:01.502Z,1005.63
2018-04-25T20:57:02.155Z,1005.70
2018-04-25T21:02:00.769Z,1005.67
2018-04-25T21:06:56.775Z,1005.63
2018-04-25T21:11:53.293Z,1005.68
2018-04-25T21:16:49.176Z,1005.49
2018-04-25T21:21:45.053Z,1005.55
2018-04-25T21:26:40.944Z,1005.58
2018-04-25T21:31:36.623Z,1005.47
2018-04-25T21:36:37.877Z,1005.52
2018-04-25T21:41:34.048Z,1005.41
2018-04-25T21:46:30.742Z,1005.34
2018-04-25T21:51:26.373Z,1005.30
2018-04-25T21:56:22.270Z,1005.35
2018-04-25T22:01:18.598Z,1005.45
2018-04-25T22:06:14.455Z,1005.41
2018-04-25T22:11:10.471Z,1005.54
2018-04-25T22:16:06.019Z,1005.51
2018-04-25T22:21:01.809Z,1005.58
2018-04-25T22:25:58.558Z,1005.51
2018-04-25T22:30:54.188Z,1005.51
2018-04-25T22:35:54.107Z,1005.49
2018-04-25T22:40:53.363Z,1005.54
2018-04-25T22:45:48.274Z,1005.56
2018-04-25T22:50:44.732Z,1005.61
2018-04-25T22:55:40.217Z,1005.67
2018-04-25T23:00:36.578Z,1005.60
2018-04-25T23:05:32.410Z,1005.56
2018-04-25T23:10:29.153Z,1005.51
2018-04-25T23:15:24.797Z,1005.59
2018-04-25T23:20:24.562Z,1005.58
2018-04-25T23:25:19.657Z,1005.42
2018-04-25T23:30:19.477Z,1005.53
2018-04-25T23:35:15.611Z,1005.46
2018-04-25T23:40:11.753Z,1005.46
2018-04-25T23:45:08.708Z,1005.45
2018-04-25T23:50:08.137Z,1005.43
2018-04-25T23:55:06.950Z,1005.44
